sensor_id;sensor_type;location;lat;lon;timestamp;P1;durP1;ratioP1;P2;durP2;ratioP2
46288;SDS011;63105;46.158;14.604;2022-12-18T00:00:13;22.65;;;14.25;;
46288;SDS011;63105;46.158;14.604;2022-12-18T00:02:38;21.45;;;13.93;;
46288;SDS011;63105;46.158;14.604;2022-12-18T00:05:03;21.63;;;13.07;;
46288;SDS011;63105;46.158;14.604;2022-12-18T00:07:29;19.05;;;12.95;;
46288;SDS011;63105;46.158;14.604;2022-12-18T00:09:54;20.13;;;13.15;;
46288;SDS011;63105;46.158;14.604;2022-12-18T00:12:19;20.58;;;13.75;;
46288;SDS011;63105;46.158;14.604;2022-12-18T00:14:44;21.48;;;13.55;;
46288;SDS011;63105;46.158;14.604;2022-12-18T00:17:10;21.20;;;13.50;;
46288;SDS011;63105;46.158;14.604;2022-12-18T00:19:35;21.38;;;13.85;;
46288;SDS011;63105;46.158;14.604;2022-12-18T00:22:00;22.27;;;14.15;;
46288;SDS011;63105;46.158;14.604;2022-12-18T00:24:25;19.48;;;13.40;;
46288;SDS011;63105;46.158;14.604;2022-12-18T00:26:51;22.23;;;14.15;;
46288;SDS011;63105;46.158;14.604;2022-12-18T00:29:16;20.38;;;13.85;;
46288;SDS011;63105;46.158;14.604;2022-12-18T00:31:41;22.35;;;15.00;;
46288;SDS011;63105;46.158;14.604;2022-12-18T00:34:08;24.65;;;15.27;;
46288;SDS011;63105;46.158;14.604;2022-12-18T00:36:34;21.98;;;14.93;;
46288;SDS011;63105;46.158;14.604;2022-12-18T00:39:00;21.70;;;14.77;;
46288;SDS011;63105;46.158;14.604;2022-12-18T00:41:25;25.00;;;15.98;;
46288;SDS011;63105;46.158;14.604;2022-12-18T00:44:10;23.63;;;16.30;;
46288;SDS011;63105;46.158;14.604;2022-12-18T00:46:36;25.63;;;16.90;;
46288;SDS011;63105;46.158;14.604;2022-12-18T00:49:02;27.23;;;17.70;;
46288;SDS011;63105;46.158;14.604;2022-12-18T00:51:27;24.90;;;16.02;;
46288;SDS011;63105;46.158;14.604;2022-12-18T00:53:52;24.15;;;16.15;;
46288;SDS011;63105;46.158;14.604;2022-12-18T00:56:21;25.98;;;16.65;;
46288;SDS011;63105;46.158;14.604;2022-12-18T00:58:46;24.75;;;16.55;;
46288;SDS011;63105;46.158;14.604;2022-12-18T01:01:11;25.92;;;16.85;;
46288;SDS011;63105;46.158;14.604;2022-12-18T01:03:36;24.67;;;15.63;;
46288;SDS011;63105;46.158;14.604;2022-12-18T01:06:05;26.17;;;16.80;;
46288;SDS011;63105;46.158;14.604;2022-12-18T01:08:30;26.67;;;16.80;;
46288;SDS011;63105;46.158;14.604;2022-12-18T01:10:56;25.73;;;16.40;;
46288;SDS011;63105;46.158;14.604;2022-12-18T01:13:21;27.42;;;16.58;;
46288;SDS011;63105;46.158;14.604;2022-12-18T01:15:49;32.53;;;19.25;;
46288;SDS011;63105;46.158;14.604;2022-12-18T01:18:14;23.83;;;15.85;;
46288;SDS011;63105;46.158;14.604;2022-12-18T01:20:40;28.00;;;17.55;;
46288;SDS011;63105;46.158;14.604;2022-12-18T01:23:05;24.90;;;15.85;;
46288;SDS011;63105;46.158;14.604;2022-12-18T01:25:30;25.17;;;16.20;;
46288;SDS011;63105;46.158;14.604;2022-12-18T01:27:55;23.95;;;15.60;;
46288;SDS011;63105;46.158;14.604;2022-12-18T01:30:20;23.17;;;14.98;;
46288;SDS011;63105;46.158;14.604;2022-12-18T01:32:46;25.00;;;15.45;;
46288;SDS011;63105;46.158;14.604;2022-12-18T01:35:11;25.17;;;14.73;;
46288;SDS011;63105;46.158;14.604;2022-12-18T01:37:36;24.35;;;15.52;;
46288;SDS011;63105;46.158;14.604;2022-12-18T01:40:01;29.33;;;17.02;;
46288;SDS011;63105;46.158;14.604;2022-12-18T01:42:26;24.25;;;15.63;;
46288;SDS011;63105;46.158;14.604;2022-12-18T01:49:48;25.60;;;15.68;;
46288;SDS011;63105;46.158;14.604;2022-12-18T01:52:13;26.55;;;15.68;;
46288;SDS011;63105;46.158;14.604;2022-12-18T01:54:39;25.63;;;15.70;;
46288;SDS011;63105;46.158;14.604;2022-12-18T01:57:04;26.88;;;16.85;;
46288;SDS011;63105;46.158;14.604;2022-12-18T01:59:29;24.92;;;15.18;;
46288;SDS011;63105;46.158;14.604;2022-12-18T02:01:56;25.63;;;15.48;;
46288;SDS011;63105;46.158;14.604;2022-12-18T02:04:22;25.13;;;15.43;;
46288;SDS011;63105;46.158;14.604;2022-12-18T02:06:49;26.00;;;15.95;;
46288;SDS011;63105;46.158;14.604;2022-12-18T02:09:18;29.58;;;17.92;;
46288;SDS011;63105;46.158;14.604;2022-12-18T02:17:36;26.40;;;16.00;;
46288;SDS011;63105;46.158;14.604;2022-12-18T02:27:33;27.05;;;16.77;;
46288;SDS011;63105;46.158;14.604;2022-12-18T02:30:00;28.25;;;17.17;;
46288;SDS011;63105;46.158;14.604;2022-12-18T02:32:30;27.15;;;16.00;;
46288;SDS011;63105;46.158;14.604;2022-12-18T02:34:57;25.50;;;15.45;;
46288;SDS011;63105;46.158;14.604;2022-12-18T02:37:23;25.45;;;16.73;;
46288;SDS011;63105;46.158;14.604;2022-12-18T02:39:49;29.90;;;16.92;;
46288;SDS011;63105;46.158;14.604;2022-12-18T02:42:16;28.92;;;17.23;;
46288;SDS011;63105;46.158;14.604;2022-12-18T02:44:46;27.40;;;15.75;;
46288;SDS011;63105;46.158;14.604;2022-12-18T02:47:12;25.65;;;15.95;;
46288;SDS011;63105;46.158;14.604;2022-12-18T02:57:18;33.63;;;18.73;;
46288;SDS011;63105;46.158;14.604;2022-12-18T03:00:30;31.67;;;18.65;;
46288;SDS011;63105;46.158;14.604;2022-12-18T03:02:37;36.00;;;19.30;;
46288;SDS011;63105;46.158;14.604;2022-12-18T03:05:07;27.65;;;16.35;;
46288;SDS011;63105;46.158;14.604;2022-12-18T03:07:35;27.58;;;16.67;;
46288;SDS011;63105;46.158;14.604;2022-12-18T03:10:01;29.50;;;16.73;;
46288;SDS011;63105;46.158;14.604;2022-12-18T03:12:31;27.08;;;16.40;;
46288;SDS011;63105;46.158;14.604;2022-12-18T03:17:23;29.05;;;17.35;;
46288;SDS011;63105;46.158;14.604;2022-12-18T03:19:50;31.30;;;18.30;;
46288;SDS011;63105;46.158;14.604;2022-12-18T03:22:16;25.92;;;15.88;;
46288;SDS011;63105;46.158;14.604;2022-12-18T03:24:41;29.02;;;16.88;;
46288;SDS011;63105;46.158;14.604;2022-12-18T03:27:08;27.75;;;16.25;;
46288;SDS011;63105;46.158;14.604;2022-12-18T03:29:36;25.30;;;15.48;;
46288;SDS011;63105;46.158;14.604;2022-12-18T03:32:10;27.38;;;15.48;;
46288;SDS011;63105;46.158;14.604;2022-12-18T03:34:37;29.15;;;17.67;;
46288;SDS011;63105;46.158;14.604;2022-12-18T03:37:03;29.23;;;17.35;;
46288;SDS011;63105;46.158;14.604;2022-12-18T03:39:29;27.13;;;16.23;;
46288;SDS011;63105;46.158;14.604;2022-12-18T03:42:05;28.40;;;16.38;;
46288;SDS011;63105;46.158;14.604;2022-12-18T03:44:36;27.85;;;16.00;;
46288;SDS011;63105;46.158;14.604;2022-12-18T03:47:06;26.80;;;15.88;;
46288;SDS011;63105;46.158;14.604;2022-12-18T03:52:14;29.23;;;17.40;;
46288;SDS011;63105;46.158;14.604;2022-12-18T03:54:42;28.23;;;15.98;;
46288;SDS011;63105;46.158;14.604;2022-12-18T03:57:11;25.85;;;15.80;;
46288;SDS011;63105;46.158;14.604;2022-12-18T03:59:37;25.23;;;15.32;;
46288;SDS011;63105;46.158;14.604;2022-12-18T04:02:02;26.27;;;15.25;;
46288;SDS011;63105;46.158;14.604;2022-12-18T04:04:29;25.50;;;15.90;;
46288;SDS011;63105;46.158;14.604;2022-12-18T04:06:55;25.33;;;15.80;;
46288;SDS011;63105;46.158;14.604;2022-12-18T04:09:21;23.70;;;15.25;;
46288;SDS011;63105;46.158;14.604;2022-12-18T04:11:47;26.98;;;16.38;;
46288;SDS011;63105;46.158;14.604;2022-12-18T04:14:13;27.25;;;16.08;;
46288;SDS011;63105;46.158;14.604;2022-12-18T04:16:38;26.77;;;16.50;;
46288;SDS011;63105;46.158;14.604;2022-12-18T04:19:03;30.75;;;17.67;;
46288;SDS011;63105;46.158;14.604;2022-12-18T04:21:29;24.85;;;15.60;;
46288;SDS011;63105;46.158;14.604;2022-12-18T04:23:54;26.67;;;16.15;;
46288;SDS011;63105;46.158;14.604;2022-12-18T04:26:19;26.50;;;15.80;;
46288;SDS011;63105;46.158;14.604;2022-12-18T04:28:45;26.77;;;16.42;;
46288;SDS011;63105;46.158;14.604;2022-12-18T04:31:10;27.17;;;16.73;;
46288;SDS011;63105;46.158;14.604;2022-12-18T04:33:35;27.45;;;16.80;;
46288;SDS011;63105;46.158;14.604;2022-12-18T04:36:00;27.10;;;15.95;;
46288;SDS011;63105;46.158;14.604;2022-12-18T04:38:26;26.23;;;16.08;;
46288;SDS011;63105;46.158;14.604;2022-12-18T04:40:51;24.90;;;15.45;;
46288;SDS011;63105;46.158;14.604;2022-12-18T04:43:16;25.35;;;15.48;;
46288;SDS011;63105;46.158;14.604;2022-12-18T04:45:41;26.55;;;15.45;;
46288;SDS011;63105;46.158;14.604;2022-12-18T04:48:07;27.10;;;16.05;;
46288;SDS011;63105;46.158;14.604;2022-12-18T04:50:32;25.85;;;16.02;;
46288;SDS011;63105;46.158;14.604;2022-12-18T04:52:57;25.48;;;15.40;;
46288;SDS011;63105;46.158;14.604;2022-12-18T04:55:22;29.38;;;16.30;;
46288;SDS011;63105;46.158;14.604;2022-12-18T04:57:48;25.63;;;15.75;;
46288;SDS011;63105;46.158;14.604;2022-12-18T05:00:13;27.83;;;16.63;;
46288;SDS011;63105;46.158;14.604;2022-12-18T05:02:38;25.58;;;16.23;;
46288;SDS011;63105;46.158;14.604;2022-12-18T05:05:03;26.63;;;15.88;;
46288;SDS011;63105;46.158;14.604;2022-12-18T05:07:29;26.60;;;16.23;;
46288;SDS011;63105;46.158;14.604;2022-12-18T05:09:54;25.02;;;15.13;;
46288;SDS011;63105;46.158;14.604;2022-12-18T05:12:19;25.40;;;16.17;;
46288;SDS011;63105;46.158;14.604;2022-12-18T05:14:44;25.15;;;15.50;;
46288;SDS011;63105;46.158;14.604;2022-12-18T05:17:10;26.38;;;15.98;;
46288;SDS011;63105;46.158;14.604;2022-12-18T05:19:35;26.33;;;15.57;;
46288;SDS011;63105;46.158;14.604;2022-12-18T05:22:00;28.20;;;16.75;;
46288;SDS011;63105;46.158;14.604;2022-12-18T05:24:26;31.02;;;17.40;;
46288;SDS011;63105;46.158;14.604;2022-12-18T05:26:51;26.63;;;15.38;;
46288;SDS011;63105;46.158;14.604;2022-12-18T05:29:16;29.35;;;17.90;;
46288;SDS011;63105;46.158;14.604;2022-12-18T05:31:41;28.05;;;16.52;;
46288;SDS011;63105;46.158;14.604;2022-12-18T05:34:07;26.83;;;15.93;;
46288;SDS011;63105;46.158;14.604;2022-12-18T05:36:32;29.13;;;17.23;;
46288;SDS011;63105;46.158;14.604;2022-12-18T05:38:57;27.10;;;17.35;;
46288;SDS011;63105;46.158;14.604;2022-12-18T05:41:22;29.13;;;17.45;;
46288;SDS011;63105;46.158;14.604;2022-12-18T05:43:48;27.65;;;16.90;;
46288;SDS011;63105;46.158;14.604;2022-12-18T05:46:15;29.70;;;16.95;;
46288;SDS011;63105;46.158;14.604;2022-12-18T05:48:41;28.48;;;16.50;;
46288;SDS011;63105;46.158;14.604;2022-12-18T05:51:07;27.27;;;16.60;;
46288;SDS011;63105;46.158;14.604;2022-12-18T05:53:33;26.63;;;16.00;;
46288;SDS011;63105;46.158;14.604;2022-12-18T05:56:05;25.52;;;15.82;;
46288;SDS011;63105;46.158;14.604;2022-12-18T05:58:30;27.40;;;15.80;;
46288;SDS011;63105;46.158;14.604;2022-12-18T06:00:56;27.55;;;15.93;;
46288;SDS011;63105;46.158;14.604;2022-12-18T06:03:21;28.73;;;16.42;;
46288;SDS011;63105;46.158;14.604;2022-12-18T06:05:46;29.98;;;17.83;;
46288;SDS011;63105;46.158;14.604;2022-12-18T06:08:12;27.40;;;15.27;;
46288;SDS011;63105;46.158;14.604;2022-12-18T06:10:37;28.27;;;16.80;;
46288;SDS011;63105;46.158;14.604;2022-12-18T06:13:03;29.25;;;17.48;;
46288;SDS011;63105;46.158;14.604;2022-12-18T06:15:28;33.03;;;18.92;;
46288;SDS011;63105;46.158;14.604;2022-12-18T06:17:54;29.75;;;17.20;;
46288;SDS011;63105;46.158;14.604;2022-12-18T06:20:19;31.13;;;17.58;;
46288;SDS011;63105;46.158;14.604;2022-12-18T06:22:44;29.08;;;16.88;;
46288;SDS011;63105;46.158;14.604;2022-12-18T06:25:10;32.25;;;18.63;;
46288;SDS011;63105;46.158;14.604;2022-12-18T06:27:35;34.60;;;19.73;;
46288;SDS011;63105;46.158;14.604;2022-12-18T06:30:00;31.67;;;17.38;;
46288;SDS011;63105;46.158;14.604;2022-12-18T06:32:26;29.75;;;17.92;;
46288;SDS011;63105;46.158;14.604;2022-12-18T06:34:52;28.85;;;16.60;;
46288;SDS011;63105;46.158;14.604;2022-12-18T06:37:18;31.15;;;17.90;;
46288;SDS011;63105;46.158;14.604;2022-12-18T06:39:43;32.70;;;18.88;;
46288;SDS011;63105;46.158;14.604;2022-12-18T06:42:09;32.00;;;18.20;;
46288;SDS011;63105;46.158;14.604;2022-12-18T06:44:34;30.85;;;18.25;;
46288;SDS011;63105;46.158;14.604;2022-12-18T06:46:59;34.45;;;19.65;;
46288;SDS011;63105;46.158;14.604;2022-12-18T06:49:24;31.48;;;18.33;;
46288;SDS011;63105;46.158;14.604;2022-12-18T06:51:49;31.38;;;17.95;;
46288;SDS011;63105;46.158;14.604;2022-12-18T06:54:14;29.85;;;18.50;;
46288;SDS011;63105;46.158;14.604;2022-12-18T06:56:40;30.48;;;17.67;;
46288;SDS011;63105;46.158;14.604;2022-12-18T06:59:05;31.25;;;18.52;;
46288;SDS011;63105;46.158;14.604;2022-12-18T07:01:30;29.67;;;17.63;;
46288;SDS011;63105;46.158;14.604;2022-12-18T07:03:56;31.20;;;18.85;;
46288;SDS011;63105;46.158;14.604;2022-12-18T07:06:22;32.50;;;19.42;;
46288;SDS011;63105;46.158;14.604;2022-12-18T07:08:48;29.35;;;18.27;;
46288;SDS011;63105;46.158;14.604;2022-12-18T07:11:14;29.52;;;17.98;;
46288;SDS011;63105;46.158;14.604;2022-12-18T07:13:39;30.58;;;19.05;;
46288;SDS011;63105;46.158;14.604;2022-12-18T07:16:05;31.63;;;19.60;;
46288;SDS011;63105;46.158;14.604;2022-12-18T07:18:31;31.92;;;19.77;;
46288;SDS011;63105;46.158;14.604;2022-12-18T07:20:56;30.50;;;19.92;;
46288;SDS011;63105;46.158;14.604;2022-12-18T07:23:21;30.77;;;19.02;;
46288;SDS011;63105;46.158;14.604;2022-12-18T07:25:46;28.80;;;18.67;;
46288;SDS011;63105;46.158;14.604;2022-12-18T07:28:12;36.83;;;21.98;;
46288;SDS011;63105;46.158;14.604;2022-12-18T07:30:37;34.17;;;20.38;;
46288;SDS011;63105;46.158;14.604;2022-12-18T07:33:03;29.23;;;17.85;;
46288;SDS011;63105;46.158;14.604;2022-12-18T07:35:28;30.58;;;18.95;;
46288;SDS011;63105;46.158;14.604;2022-12-18T07:37:53;32.05;;;19.05;;
46288;SDS011;63105;46.158;14.604;2022-12-18T07:40:18;30.63;;;19.35;;
46288;SDS011;63105;46.158;14.604;2022-12-18T07:42:43;30.92;;;20.35;;
46288;SDS011;63105;46.158;14.604;2022-12-18T07:45:09;34.33;;;20.65;;
46288;SDS011;63105;46.158;14.604;2022-12-18T07:47:35;30.50;;;18.77;;
46288;SDS011;63105;46.158;14.604;2022-12-18T07:50:01;30.90;;;18.95;;
46288;SDS011;63105;46.158;14.604;2022-12-18T07:52:26;31.55;;;19.02;;
46288;SDS011;63105;46.158;14.604;2022-12-18T07:54:51;30.15;;;19.30;;
46288;SDS011;63105;46.158;14.604;2022-12-18T07:57:17;32.53;;;19.73;;
46288;SDS011;63105;46.158;14.604;2022-12-18T07:59:42;32.05;;;18.83;;
46288;SDS011;63105;46.158;14.604;2022-12-18T08:02:08;30.70;;;19.45;;
46288;SDS011;63105;46.158;14.604;2022-12-18T08:04:33;31.90;;;20.45;;
46288;SDS011;63105;46.158;14.604;2022-12-18T08:06:58;33.45;;;19.92;;
46288;SDS011;63105;46.158;14.604;2022-12-18T08:09:23;33.67;;;20.17;;
46288;SDS011;63105;46.158;14.604;2022-12-18T08:11:49;33.20;;;20.77;;
46288;SDS011;63105;46.158;14.604;2022-12-18T08:14:14;31.23;;;20.25;;
46288;SDS011;63105;46.158;14.604;2022-12-18T08:16:39;34.17;;;22.08;;
46288;SDS011;63105;46.158;14.604;2022-12-18T08:19:04;33.22;;;21.02;;
46288;SDS011;63105;46.158;14.604;2022-12-18T08:21:30;38.38;;;23.10;;
46288;SDS011;63105;46.158;14.604;2022-12-18T08:23:56;36.90;;;23.42;;
46288;SDS011;63105;46.158;14.604;2022-12-18T08:26:22;42.25;;;25.80;;
46288;SDS011;63105;46.158;14.604;2022-12-18T08:28:48;43.17;;;26.70;;
46288;SDS011;63105;46.158;14.604;2022-12-18T08:31:14;43.20;;;26.55;;
46288;SDS011;63105;46.158;14.604;2022-12-18T08:33:39;39.75;;;25.23;;
46288;SDS011;63105;46.158;14.604;2022-12-18T08:36:04;44.05;;;27.58;;
46288;SDS011;63105;46.158;14.604;2022-12-18T08:38:31;43.55;;;27.15;;
46288;SDS011;63105;46.158;14.604;2022-12-18T08:41:03;42.75;;;26.20;;
46288;SDS011;63105;46.158;14.604;2022-12-18T08:43:29;43.55;;;27.10;;
46288;SDS011;63105;46.158;14.604;2022-12-18T08:46:13;42.83;;;26.70;;
46288;SDS011;63105;46.158;14.604;2022-12-18T08:48:38;43.55;;;26.52;;
46288;SDS011;63105;46.158;14.604;2022-12-18T08:51:03;42.35;;;25.05;;
46288;SDS011;63105;46.158;14.604;2022-12-18T08:53:29;39.45;;;26.17;;
46288;SDS011;63105;46.158;14.604;2022-12-18T08:55:55;42.88;;;26.70;;
46288;SDS011;63105;46.158;14.604;2022-12-18T08:58:21;42.42;;;26.25;;
46288;SDS011;63105;46.158;14.604;2022-12-18T09:00:46;39.78;;;25.95;;
46288;SDS011;63105;46.158;14.604;2022-12-18T09:03:14;39.50;;;24.45;;
46288;SDS011;63105;46.158;14.604;2022-12-18T09:05:39;37.80;;;23.45;;
46288;SDS011;63105;46.158;14.604;2022-12-18T09:08:05;38.60;;;24.27;;
46288;SDS011;63105;46.158;14.604;2022-12-18T09:10:30;38.55;;;24.23;;
46288;SDS011;63105;46.158;14.604;2022-12-18T09:12:55;37.88;;;25.15;;
46288;SDS011;63105;46.158;14.604;2022-12-18T09:15:21;35.47;;;23.00;;
46288;SDS011;63105;46.158;14.604;2022-12-18T09:17:46;38.60;;;25.38;;
46288;SDS011;63105;46.158;14.604;2022-12-18T09:20:11;36.17;;;23.90;;
46288;SDS011;63105;46.158;14.604;2022-12-18T09:22:36;34.05;;;22.65;;
46288;SDS011;63105;46.158;14.604;2022-12-18T09:25:02;38.17;;;23.85;;
46288;SDS011;63105;46.158;14.604;2022-12-18T09:27:27;35.65;;;22.58;;
46288;SDS011;63105;46.158;14.604;2022-12-18T09:29:52;36.95;;;23.70;;
46288;SDS011;63105;46.158;14.604;2022-12-18T09:32:17;37.72;;;23.05;;
46288;SDS011;63105;46.158;14.604;2022-12-18T09:34:42;36.50;;;22.80;;
46288;SDS011;63105;46.158;14.604;2022-12-18T09:37:08;36.97;;;22.98;;
46288;SDS011;63105;46.158;14.604;2022-12-18T09:39:34;36.47;;;23.75;;
46288;SDS011;63105;46.158;14.604;2022-12-18T09:42:00;37.42;;;23.65;;
46288;SDS011;63105;46.158;14.604;2022-12-18T09:49:19;43.08;;;25.30;;
46288;SDS011;63105;46.158;14.604;2022-12-18T09:51:50;37.13;;;23.25;;
46288;SDS011;63105;46.158;14.604;2022-12-18T09:54:20;33.17;;;21.25;;
46288;SDS011;63105;46.158;14.604;2022-12-18T09:56:46;36.70;;;24.08;;
46288;SDS011;63105;46.158;14.604;2022-12-18T09:59:26;35.97;;;22.65;;
46288;SDS011;63105;46.158;14.604;2022-12-18T10:01:54;37.25;;;21.73;;
46288;SDS011;63105;46.158;14.604;2022-12-18T10:04:20;37.83;;;24.35;;
46288;SDS011;63105;46.158;14.604;2022-12-18T10:06:55;37.22;;;23.65;;
46288;SDS011;63105;46.158;14.604;2022-12-18T10:09:27;36.22;;;22.17;;
46288;SDS011;63105;46.158;14.604;2022-12-18T10:27:26;35.45;;;23.38;;
46288;SDS011;63105;46.158;14.604;2022-12-18T10:29:52;34.40;;;22.67;;
46288;SDS011;63105;46.158;14.604;2022-12-18T10:32:22;36.63;;;22.30;;
46288;SDS011;63105;46.158;14.604;2022-12-18T10:34:49;34.10;;;21.50;;
46288;SDS011;63105;46.158;14.604;2022-12-18T10:37:18;35.88;;;21.38;;
46288;SDS011;63105;46.158;14.604;2022-12-18T10:39:44;35.22;;;21.33;;
46288;SDS011;63105;46.158;14.604;2022-12-18T10:42:19;35.03;;;20.75;;
46288;SDS011;63105;46.158;14.604;2022-12-18T10:44:44;31.90;;;19.63;;
46288;SDS011;63105;46.158;14.604;2022-12-18T10:47:19;33.30;;;21.13;;
46288;SDS011;63105;46.158;14.604;2022-12-18T10:49:48;34.65;;;21.38;;
46288;SDS011;63105;46.158;14.604;2022-12-18T10:52:18;33.67;;;21.77;;
46288;SDS011;63105;46.158;14.604;2022-12-18T10:54:48;32.42;;;19.80;;
46288;SDS011;63105;46.158;14.604;2022-12-18T10:57:15;33.30;;;21.55;;
46288;SDS011;63105;46.158;14.604;2022-12-18T10:59:51;33.42;;;22.35;;
46288;SDS011;63105;46.158;14.604;2022-12-18T11:02:35;32.22;;;21.25;;
46288;SDS011;63105;46.158;14.604;2022-12-18T11:05:01;34.90;;;22.70;;
46288;SDS011;63105;46.158;14.604;2022-12-18T11:07:35;33.20;;;21.20;;
46288;SDS011;63105;46.158;14.604;2022-12-18T11:10:14;38.22;;;23.58;;
46288;SDS011;63105;46.158;14.604;2022-12-18T11:12:40;34.45;;;21.58;;
46288;SDS011;63105;46.158;14.604;2022-12-18T11:15:05;33.38;;;21.38;;
46288;SDS011;63105;46.158;14.604;2022-12-18T11:17:31;30.77;;;19.52;;
46288;SDS011;63105;46.158;14.604;2022-12-18T11:20:00;34.17;;;21.25;;
46288;SDS011;63105;46.158;14.604;2022-12-18T11:22:29;31.77;;;17.80;;
46288;SDS011;63105;46.158;14.604;2022-12-18T11:24:59;30.13;;;20.17;;
46288;SDS011;63105;46.158;14.604;2022-12-18T11:27:25;31.15;;;19.38;;
46288;SDS011;63105;46.158;14.604;2022-12-18T11:29:51;29.92;;;18.67;;
46288;SDS011;63105;46.158;14.604;2022-12-18T11:34:45;27.83;;;16.90;;
46288;SDS011;63105;46.158;14.604;2022-12-18T11:37:11;29.80;;;17.98;;
46288;SDS011;63105;46.158;14.604;2022-12-18T11:44:59;26.17;;;16.17;;
46288;SDS011;63105;46.158;14.604;2022-12-18T11:47:35;24.80;;;16.05;;
46288;SDS011;63105;46.158;14.604;2022-12-18T11:50:03;26.45;;;16.52;;
46288;SDS011;63105;46.158;14.604;2022-12-18T11:52:34;25.92;;;16.83;;
46288;SDS011;63105;46.158;14.604;2022-12-18T11:55:04;24.52;;;14.98;;
46288;SDS011;63105;46.158;14.604;2022-12-18T12:00:15;25.77;;;16.57;;
46288;SDS011;63105;46.158;14.604;2022-12-18T12:07:59;25.17;;;16.20;;
46288;SDS011;63105;46.158;14.604;2022-12-18T12:23:48;26.27;;;15.77;;
46288;SDS011;63105;46.158;14.604;2022-12-18T12:26:35;27.88;;;16.98;;
46288;SDS011;63105;46.158;14.604;2022-12-18T12:29:13;29.83;;;17.35;;
46288;SDS011;63105;46.158;14.604;2022-12-18T12:36:45;25.63;;;16.63;;
46288;SDS011;63105;46.158;14.604;2022-12-18T12:39:14;26.25;;;15.88;;
46288;SDS011;63105;46.158;14.604;2022-12-18T12:41:42;26.20;;;15.88;;
46288;SDS011;63105;46.158;14.604;2022-12-18T12:44:30;25.05;;;15.82;;
46288;SDS011;63105;46.158;14.604;2022-12-18T12:47:00;26.33;;;17.05;;
46288;SDS011;63105;46.158;14.604;2022-12-18T12:49:26;25.77;;;16.48;;
46288;SDS011;63105;46.158;14.604;2022-12-18T12:52:00;26.27;;;16.50;;
46288;SDS011;63105;46.158;14.604;2022-12-18T12:54:29;25.23;;;15.82;;
46288;SDS011;63105;46.158;14.604;2022-12-18T12:59:41;26.08;;;16.20;;
46288;SDS011;63105;46.158;14.604;2022-12-18T13:10:12;24.02;;;15.00;;
46288;SDS011;63105;46.158;14.604;2022-12-18T13:12:51;23.77;;;15.15;;
46288;SDS011;63105;46.158;14.604;2022-12-18T13:15:27;22.80;;;15.18;;
46288;SDS011;63105;46.158;14.604;2022-12-18T13:18:11;25.20;;;14.93;;
46288;SDS011;63105;46.158;14.604;2022-12-18T13:20:38;23.15;;;14.68;;
46288;SDS011;63105;46.158;14.604;2022-12-18T13:23:19;24.63;;;15.43;;
46288;SDS011;63105;46.158;14.604;2022-12-18T13:25:44;25.42;;;15.52;;
46288;SDS011;63105;46.158;14.604;2022-12-18T13:35:40;24.27;;;15.23;;
46288;SDS011;63105;46.158;14.604;2022-12-18T13:43:44;23.75;;;15.73;;
46288;SDS011;63105;46.158;14.604;2022-12-18T13:51:33;24.17;;;14.32;;
46288;SDS011;63105;46.158;14.604;2022-12-18T13:54:13;25.08;;;15.68;;
46288;SDS011;63105;46.158;14.604;2022-12-18T13:56:44;24.23;;;14.98;;
46288;SDS011;63105;46.158;14.604;2022-12-18T13:59:17;24.58;;;14.82;;
46288;SDS011;63105;46.158;14.604;2022-12-18T14:04:21;25.80;;;15.68;;
46288;SDS011;63105;46.158;14.604;2022-12-18T14:06:47;24.08;;;14.98;;
46288;SDS011;63105;46.158;14.604;2022-12-18T14:09:15;24.92;;;15.80;;
46288;SDS011;63105;46.158;14.604;2022-12-18T14:11:40;25.08;;;14.88;;
46288;SDS011;63105;46.158;14.604;2022-12-18T14:14:13;24.45;;;15.48;;
46288;SDS011;63105;46.158;14.604;2022-12-18T14:16:41;24.80;;;15.45;;
46288;SDS011;63105;46.158;14.604;2022-12-18T14:19:09;24.45;;;15.15;;
46288;SDS011;63105;46.158;14.604;2022-12-18T14:21:37;25.52;;;14.98;;
46288;SDS011;63105;46.158;14.604;2022-12-18T14:24:24;22.95;;;15.30;;
46288;SDS011;63105;46.158;14.604;2022-12-18T14:26:49;24.13;;;15.35;;
46288;SDS011;63105;46.158;14.604;2022-12-18T14:29:22;24.23;;;14.45;;
46288;SDS011;63105;46.158;14.604;2022-12-18T14:32:09;25.65;;;16.27;;
46288;SDS011;63105;46.158;14.604;2022-12-18T14:34:34;27.58;;;15.50;;
46288;SDS011;63105;46.158;14.604;2022-12-18T14:36:59;27.83;;;15.00;;
46288;SDS011;63105;46.158;14.604;2022-12-18T14:39:24;26.38;;;15.65;;
46288;SDS011;63105;46.158;14.604;2022-12-18T14:41:50;27.83;;;15.77;;
46288;SDS011;63105;46.158;14.604;2022-12-18T14:44:16;24.42;;;15.23;;
46288;SDS011;63105;46.158;14.604;2022-12-18T14:46:42;26.13;;;15.15;;
46288;SDS011;63105;46.158;14.604;2022-12-18T14:51:49;25.50;;;15.82;;
46288;SDS011;63105;46.158;14.604;2022-12-18T14:54:16;25.77;;;16.33;;
46288;SDS011;63105;46.158;14.604;2022-12-18T14:56:44;29.35;;;16.50;;
46288;SDS011;63105;46.158;14.604;2022-12-18T14:59:13;25.90;;;16.65;;
46288;SDS011;63105;46.158;14.604;2022-12-18T15:01:45;26.80;;;16.52;;
46288;SDS011;63105;46.158;14.604;2022-12-18T15:04:23;27.95;;;16.67;;
46288;SDS011;63105;46.158;14.604;2022-12-18T15:06:50;26.75;;;16.42;;
46288;SDS011;63105;46.158;14.604;2022-12-18T15:09:26;27.23;;;17.08;;
46288;SDS011;63105;46.158;14.604;2022-12-18T15:11:56;25.92;;;15.75;;
46288;SDS011;63105;46.158;14.604;2022-12-18T15:14:22;25.52;;;16.85;;
46288;SDS011;63105;46.158;14.604;2022-12-18T15:16:51;26.35;;;16.05;;
46288;SDS011;63105;46.158;14.604;2022-12-18T15:19:18;25.00;;;15.82;;
46288;SDS011;63105;46.158;14.604;2022-12-18T15:21:45;24.58;;;16.15;;
46288;SDS011;63105;46.158;14.604;2022-12-18T15:24:16;27.77;;;17.10;;
46288;SDS011;63105;46.158;14.604;2022-12-18T15:26:42;26.85;;;16.67;;
46288;SDS011;63105;46.158;14.604;2022-12-18T15:29:15;24.73;;;15.98;;
46288;SDS011;63105;46.158;14.604;2022-12-18T15:31:42;25.13;;;15.80;;
46288;SDS011;63105;46.158;14.604;2022-12-18T15:36:32;26.23;;;16.52;;
46288;SDS011;63105;46.158;14.604;2022-12-18T15:39:01;24.83;;;15.55;;
46288;SDS011;63105;46.158;14.604;2022-12-18T15:41:26;24.27;;;15.10;;
46288;SDS011;63105;46.158;14.604;2022-12-18T15:43:52;26.02;;;15.93;;
46288;SDS011;63105;46.158;14.604;2022-12-18T15:46:19;24.95;;;16.33;;
46288;SDS011;63105;46.158;14.604;2022-12-18T15:48:45;23.67;;;15.57;;
46288;SDS011;63105;46.158;14.604;2022-12-18T15:51:15;25.00;;;16.20;;
46288;SDS011;63105;46.158;14.604;2022-12-18T15:53:44;24.70;;;15.27;;
46288;SDS011;63105;46.158;14.604;2022-12-18T15:56:11;27.55;;;17.50;;
46288;SDS011;63105;46.158;14.604;2022-12-18T15:58:55;26.65;;;16.90;;
46288;SDS011;63105;46.158;14.604;2022-12-18T16:01:21;26.85;;;16.08;;
46288;SDS011;63105;46.158;14.604;2022-12-18T16:03:47;27.73;;;17.42;;
46288;SDS011;63105;46.158;14.604;2022-12-18T16:06:13;28.20;;;17.33;;
46288;SDS011;63105;46.158;14.604;2022-12-18T16:08:38;28.85;;;17.08;;
46288;SDS011;63105;46.158;14.604;2022-12-18T16:11:03;29.05;;;17.52;;